Terminal Aerodrome Forecast
Issued by NWS

Home | Current Version | Previous Version | Text Only | Print | Product List | Glossary On
Versions: 1 2 3 4 5 6 7 8 9 10 11 12 13 14 15 16 17 18 19 20 21 22 23 24 25 26
000
FTUS43 KDVN 260100 AAB
TAFBRL
TAF AMD
KBRL 260156Z 2602/2624 03014KT 3/4SM -SN BR VV015
      TEMPO 2602/2604 2SM -SN BR VV005
     FM260400 01013KT 2SM -SN BR OVC006
     FM261200 02010KT P6SM -SN OVC012
     FM261500 36012KT P6SM OVC025=

USA.gov is the U.S. government's official web portal to all federal, state and local government web resources and services.